Time,TemperatureF,DewpointF,PressureIn,WindDirection,WindDirectionDegrees,WindSpeedMPH,WindSpeedGustMPH,Humidity,HourlyPrecipIn,Conditions,Clouds,dailyrainin,SoftwareType,DateUTC
2013-06-10 00:02:00,52.6,45.9,30.02,North,0,2.2,3.4,78,0.00,,,0.00,WUHU216HW,2013-06-10 07:02:00,
2013-06-10 00:07:00,52.6,45.9,30.02,WNW,293,2.5,2.7,78,0.00,,,0.00,WUHU216HW,2013-06-10 07:07:00,
2013-06-10 00:12:00,52.4,45.7,30.02,North,0,4.7,4.7,78,0.00,,,0.00,WUHU216HW,2013-06-10 07:12:00,
2013-06-10 00:17:00,52.4,45.7,30.02,ESE,113,0.2,4.7,78,0.00,,,0.00,WUHU216HW,2013-06-10 07:17:00,
2013-06-10 00:22:00,52.2,45.5,30.02,East,90,2.2,4.7,78,0.00,,,0.00,WUHU216HW,2013-06-10 07:22:00,
2013-06-10 00:27:00,52.2,45.5,30.02,NE,45,0.9,2.5,78,0.00,,,0.00,WUHU216HW,2013-06-10 07:27:00,
2013-06-10 00:32:00,52.2,45.9,30.02,ESE,113,1.8,2.2,79,0.00,,,0.00,WUHU216HW,2013-06-10 07:32:00,
2013-06-10 00:37:00,52.0,45.4,30.02,ENE,68,2.9,4.7,78,0.00,,,0.00,WUHU216HW,2013-06-10 07:37:00,
2013-06-10 00:42:00,52.0,45.4,30.02,East,90,1.1,4.7,78,0.00,,,0.00,WUHU216HW,2013-06-10 07:42:00,
2013-06-10 00:47:00,52.0,45.4,30.02,NE,45,1.8,3.8,78,0.00,,,0.00,WUHU216HW,2013-06-10 07:47:00,
2013-06-10 00:52:00,52.0,45.4,30.02,NNW,338,0.2,3.1,78,0.00,,,0.00,WUHU216HW,2013-06-10 07:52:00,
2013-06-10 00:57:00,51.8,45.2,30.02,NNW,338,1.8,3.1,78,0.00,,,0.00,WUHU216HW,2013-06-10 07:57:00,
2013-06-10 01:02:00,51.8,45.2,30.02,NNE,23,1.3,3.1,78,0.00,,,0.00,WUHU216HW,2013-06-10 08:02:00,
2013-06-10 01:07:00,51.8,45.5,30.02,ENE,68,0.9,2.9,79,0.00,,,0.00,WUHU216HW,2013-06-10 08:07:00,
2013-06-10 01:12:00,51.8,45.5,30.02,ENE,68,2.9,2.9,79,0.00,,,0.00,WUHU216HW,2013-06-10 08:12:00,
2013-06-10 01:17:00,51.8,45.5,30.02,NNE,23,1.1,2.9,79,0.00,,,0.00,WUHU216HW,2013-06-10 08:17:00,
2013-06-10 01:22:00,51.8,45.5,30.02,NE,45,0.9,2.9,79,0.00,,,0.00,WUHU216HW,2013-06-10 08:22:00,
2013-06-10 01:27:00,51.8,45.5,30.02,North,0,0.7,3.1,79,0.00,,,0.00,WUHU216HW,2013-06-10 08:27:00,
2013-06-10 01:32:00,51.8,45.9,30.02,NE,45,0.4,3.1,80,0.00,,,0.00,WUHU216HW,2013-06-10 08:32:00,
2013-06-10 01:37:00,51.8,45.9,30.02,NNE,23,1.3,2.5,80,0.00,,,0.00,WUHU216HW,2013-06-10 08:37:00,
2013-06-10 01:42:00,51.8,45.9,30.02,East,90,0.4,2.5,80,0.00,,,0.00,WUHU216HW,2013-06-10 08:42:00,
2013-06-10 01:47:00,51.8,45.9,30.02,East,90,0.7,2.0,80,0.00,,,0.00,WUHU216HW,2013-06-10 08:47:00,
2013-06-10 01:52:00,51.8,45.9,30.02,NNE,23,0.0,1.6,80,0.00,,,0.00,WUHU216HW,2013-06-10 08:52:00,
2013-06-10 01:57:00,52.0,45.7,30.02,ENE,68,0.0,1.1,79,0.00,,,0.00,WUHU216HW,2013-06-10 08:57:00,
2013-06-10 02:02:00,52.0,45.7,30.02,ENE,68,0.0,0.4,79,0.00,,,0.00,WUHU216HW,2013-06-10 09:02:00,
2013-06-10 02:07:00,52.2,45.9,30.02,ENE,68,0.0,0.2,79,0.00,,,0.00,WUHU216HW,2013-06-10 09:07:00,
2013-06-10 02:12:00,52.2,45.9,30.02,ENE,68,0.0,0.2,79,0.00,,,0.00,WUHU216HW,2013-06-10 09:12:00,
2013-06-10 02:17:00,52.2,45.9,30.02,ENE,68,0.0,0.0,79,0.00,,,0.00,WUHU216HW,2013-06-10 09:17:00,
2013-06-10 02:22:00,52.2,45.9,30.02,ENE,68,0.2,0.2,79,0.00,,,0.00,WUHU216HW,2013-06-10 09:22:00,
2013-06-10 02:27:00,52.2,45.9,30.01,ENE,68,0.0,0.4,79,0.00,,,0.00,WUHU216HW,2013-06-10 09:27:00,
2013-06-10 02:32:00,52.2,45.9,30.01,East,90,0.0,0.4,79,0.00,,,0.00,WUHU216HW,2013-06-10 09:32:00,
2013-06-10 02:37:00,52.2,45.9,30.01,ESE,113,0.7,2.0,79,0.00,,,0.00,WUHU216HW,2013-06-10 09:37:00,
2013-06-10 02:42:00,52.2,45.9,30.01,ESE,113,0.0,2.0,79,0.00,,,0.00,WUHU216HW,2013-06-10 09:42:00,
2013-06-10 02:47:00,52.2,45.9,30.01,East,90,0.2,1.6,79,0.00,,,0.00,WUHU216HW,2013-06-10 09:47:00,
2013-06-10 02:52:00,52.2,45.9,30.01,East,90,0.0,1.6,79,0.00,,,0.00,WUHU216HW,2013-06-10 09:52:00,
2013-06-10 02:57:00,52.2,45.9,30.01,East,90,0.2,1.1,79,0.00,,,0.00,WUHU216HW,2013-06-10 09:57:00,
2013-06-10 03:02:00,52.0,45.7,30.01,East,90,0.0,1.1,79,0.00,,,0.00,WUHU216HW,2013-06-10 10:02:00,
2013-06-10 03:07:00,52.0,45.7,30.00,East,90,0.2,0.4,79,0.00,,,0.00,WUHU216HW,2013-06-10 10:07:00,
2013-06-10 03:12:00,52.2,45.9,30.00,ENE,68,0.4,0.7,79,0.00,,,0.00,WUHU216HW,2013-06-10 10:12:00,
2013-06-10 03:17:00,52.0,45.7,30.00,NE,45,0.0,0.7,79,0.00,,,0.00,WUHU216HW,2013-06-10 10:17:00,
2013-06-10 03:22:00,52.2,45.9,30.00,NE,45,0.0,0.4,79,0.00,,,0.00,WUHU216HW,2013-06-10 10:22:00,
2013-06-10 03:27:00,52.2,45.9,30.00,NE,45,0.0,0.0,79,0.00,,,0.00,WUHU216HW,2013-06-10 10:27:00,
2013-06-10 03:32:00,52.2,45.9,30.00,NE,45,0.0,0.2,79,0.00,,,0.00,WUHU216HW,2013-06-10 10:32:00,
2013-06-10 03:37:00,52.4,45.7,30.00,NNE,23,0.0,0.2,78,0.00,,,0.00,WUHU216HW,2013-06-10 10:37:00,
2013-06-10 03:42:00,52.2,45.9,30.00,ENE,68,0.7,1.6,79,0.00,,,0.00,WUHU216HW,2013-06-10 10:42:00,
2013-06-10 03:47:00,52.2,45.5,30.00,East,90,0.0,1.6,78,0.00,,,0.00,WUHU216HW,2013-06-10 10:47:00,
2013-06-10 03:52:00,52.2,45.5,29.99,East,90,0.0,0.7,78,0.00,,,0.00,WUHU216HW,2013-06-10 10:52:00,
2013-06-10 03:57:00,52.2,45.5,29.99,East,90,0.2,0.4,78,0.00,,,0.00,WUHU216HW,2013-06-10 10:57:00,
2013-06-10 04:02:00,52.2,45.5,29.99,ENE,68,0.0,0.2,78,0.00,,,0.00,WUHU216HW,2013-06-10 11:02:00,
2013-06-10 04:07:00,52.2,45.5,29.99,ENE,68,0.0,0.7,78,0.00,,,0.00,WUHU216HW,2013-06-10 11:07:00,
2013-06-10 04:12:00,52.2,45.5,29.99,ENE,68,0.0,0.7,78,0.00,,,0.00,WUHU216HW,2013-06-10 11:12:00,
2013-06-10 04:17:00,52.2,45.5,29.99,ENE,68,0.0,0.2,78,0.00,,,0.00,WUHU216HW,2013-06-10 11:17:00,
2013-06-10 04:22:00,52.2,45.5,29.99,ENE,68,0.0,0.2,78,0.00,,,0.00,WUHU216HW,2013-06-10 11:22:00,
2013-06-10 04:27:00,52.2,45.5,29.99,SW,225,0.2,0.4,78,0.00,,,0.00,WUHU216HW,2013-06-10 11:27:00,
2013-06-10 04:32:00,52.2,45.5,29.99,SW,225,0.7,0.7,78,0.00,,,0.00,WUHU216HW,2013-06-10 11:32:00,
2013-06-10 04:37:00,52.0,45.4,29.99,SW,225,0.4,1.1,78,0.00,,,0.00,WUHU216HW,2013-06-10 11:37:00,
2013-06-10 04:42:00,51.8,45.2,29.99,SW,225,0.9,1.1,78,0.00,,,0.00,WUHU216HW,2013-06-10 11:42:00,
2013-06-10 04:47:00,51.7,45.4,29.99,SW,225,0.7,0.9,79,0.00,,,0.00,WUHU216HW,2013-06-10 11:47:00,
2013-06-10 04:52:00,51.5,45.2,29.99,SW,225,0.9,0.9,79,0.00,,,0.00,WUHU216HW,2013-06-10 11:52:00,
2013-06-10 04:57:00,51.5,45.2,29.99,SW,225,1.1,1.1,79,0.00,,,0.00,WUHU216HW,2013-06-10 11:57:00,
2013-06-10 05:02:00,51.5,45.2,29.99,WSW,248,0.4,1.1,79,0.00,,,0.00,WUHU216HW,2013-06-10 12:02:00,
2013-06-10 05:07:00,51.3,45.0,29.99,WSW,248,0.9,1.1,79,0.00,,,0.00,WUHU216HW,2013-06-10 12:07:00,
2013-06-10 05:12:00,51.1,45.2,29.99,SW,225,1.1,1.1,80,0.00,,,0.00,WUHU216HW,2013-06-10 12:12:00,
2013-06-10 05:17:00,50.9,45.0,29.99,SW,225,0.4,1.1,80,0.00,,,0.00,WUHU216HW,2013-06-10 12:17:00,
2013-06-10 05:22:00,50.8,44.8,29.99,SW,225,0.9,1.1,80,0.00,,,0.00,WUHU216HW,2013-06-10 12:22:00,
2013-06-10 05:27:00,50.8,44.8,29.99,SW,225,1.1,1.1,80,0.00,,,0.00,WUHU216HW,2013-06-10 12:27:00,
2013-06-10 05:32:00,50.8,44.8,29.99,WSW,248,0.9,1.1,80,0.00,,,0.00,WUHU216HW,2013-06-10 12:32:00,
2013-06-10 05:37:00,50.8,44.8,29.99,WSW,248,0.9,1.3,80,0.00,,,0.00,WUHU216HW,2013-06-10 12:37:00,
2013-06-10 05:42:00,50.4,44.7,29.99,SW,225,1.1,1.3,81,0.00,,,0.00,WUHU216HW,2013-06-10 12:42:00,
2013-06-10 05:47:00,50.4,44.7,29.99,WSW,248,0.4,1.3,81,0.00,,,0.00,WUHU216HW,2013-06-10 12:47:00,
2013-06-10 05:52:00,50.4,44.7,29.99,WSW,248,0.0,1.3,81,0.00,,,0.00,WUHU216HW,2013-06-10 12:52:00,
2013-06-10 05:57:00,50.4,44.7,29.99,SSW,203,0.2,1.1,81,0.00,,,0.00,WUHU216HW,2013-06-10 12:57:00,
2013-06-10 06:02:00,50.4,44.7,29.98,SSW,203,0.2,0.9,81,0.00,,,0.00,WUHU216HW,2013-06-10 13:02:00,
2013-06-10 06:07:00,50.4,44.7,29.99,SW,225,1.1,1.1,81,0.00,,,0.00,WUHU216HW,2013-06-10 13:07:00,
2013-06-10 06:12:00,50.6,44.9,29.99,SW,225,0.4,1.1,81,0.00,,,0.00,WUHU216HW,2013-06-10 13:12:00,
2013-06-10 06:17:00,50.8,45.1,29.98,SW,225,1.1,1.1,81,0.00,,,0.00,WUHU216HW,2013-06-10 13:17:00,
2013-06-10 06:22:00,50.8,45.1,29.99,SW,225,0.7,1.1,81,0.00,,,0.00,WUHU216HW,2013-06-10 13:22:00,
2013-06-10 06:27:00,51.1,45.5,29.99,SW,225,0.7,1.1,81,0.00,,,0.00,WUHU216HW,2013-06-10 13:27:00,
2013-06-10 06:32:00,52.4,47.1,29.98,SW,225,0.0,1.1,82,0.00,,,0.00,WUHU216HW,2013-06-10 13:32:00,
2013-06-10 06:37:00,54.0,48.3,29.98,West,270,0.0,0.9,81,0.00,,,0.00,WUHU216HW,2013-06-10 13:37:00,
2013-06-10 06:42:00,55.4,49.0,29.98,SW,225,1.3,1.8,79,0.00,,,0.00,WUHU216HW,2013-06-10 13:42:00,
2013-06-10 06:47:00,56.5,50.0,29.98,SSW,203,0.0,1.8,79,0.00,,,0.00,WUHU216HW,2013-06-10 13:47:00,
2013-06-10 06:52:00,56.9,49.0,29.98,NNE,23,0.7,1.6,75,0.00,,,0.00,WUHU216HW,2013-06-10 13:52:00,
2013-06-10 06:57:00,56.9,47.9,29.98,East,90,1.3,1.8,72,0.00,,,0.00,WUHU216HW,2013-06-10 13:57:00,
2013-06-10 07:02:00,56.7,48.1,29.98,ESE,113,0.9,3.4,73,0.00,,,0.00,WUHU216HW,2013-06-10 14:02:00,
2013-06-10 07:07:00,57.2,48.6,29.98,South,180,1.3,3.4,73,0.00,,,0.00,WUHU216HW,2013-06-10 14:07:00,
2013-06-10 07:12:00,57.2,47.9,29.98,East,90,1.1,1.8,71,0.00,,,0.00,WUHU216HW,2013-06-10 14:12:00,
2013-06-10 07:17:00,56.9,47.5,29.98,SSE,158,1.8,3.4,71,0.00,,,0.00,WUHU216HW,2013-06-10 14:17:00,
2013-06-10 07:22:00,56.9,47.9,29.98,ESE,113,1.3,3.6,72,0.00,,,0.00,WUHU216HW,2013-06-10 14:22:00,
2013-06-10 07:27:00,57.2,48.2,29.98,SE,135,0.7,3.6,72,0.00,,,0.00,WUHU216HW,2013-06-10 14:27:00,
2013-06-10 07:32:00,57.1,48.1,29.98,NNE,23,1.1,2.7,72,0.00,,,0.00,WUHU216HW,2013-06-10 14:32:00,
2013-06-10 07:37:00,56.7,47.4,29.98,North,0,1.1,3.8,71,0.00,,,0.00,WUHU216HW,2013-06-10 14:37:00,
2013-06-10 07:42:00,56.3,47.1,29.98,NE,45,3.6,4.0,71,0.00,,,0.00,WUHU216HW,2013-06-10 14:42:00,
2013-06-10 07:47:00,56.3,47.1,29.98,NE,45,3.4,4.7,71,0.00,,,0.00,WUHU216HW,2013-06-10 14:47:00,
2013-06-10 07:52:00,56.3,47.4,29.98,ENE,68,2.9,4.7,72,0.00,,,0.00,WUHU216HW,2013-06-10 14:52:00,
2013-06-10 07:57:00,56.5,48.0,29.98,NE,45,1.1,5.4,73,0.00,,,0.00,WUHU216HW,2013-06-10 14:57:00,
2013-06-10 08:02:00,56.5,48.0,29.98,NNW,338,1.8,5.4,73,0.00,,,0.00,WUHU216HW,2013-06-10 15:02:00,
2013-06-10 08:07:00,57.1,48.4,29.98,ESE,113,1.8,4.9,73,0.00,,,0.00,WUHU216HW,2013-06-10 15:07:00,
2013-06-10 08:12:00,57.2,48.6,29.98,NNE,23,2.5,4.9,73,0.00,,,0.00,WUHU216HW,2013-06-10 15:12:00,
2013-06-10 08:17:00,57.2,47.9,29.98,NNE,23,2.5,4.7,71,0.00,,,0.00,WUHU216HW,2013-06-10 15:17:00,
2013-06-10 08:22:00,57.6,48.2,29.98,NNE,23,1.6,4.7,71,0.00,,,0.00,WUHU216HW,2013-06-10 15:22:00,
2013-06-10 08:27:00,58.0,47.9,29.98,NNE,23,1.8,3.1,69,0.00,,,0.00,WUHU216HW,2013-06-10 15:27:00,
2013-06-10 08:32:00,58.0,47.9,29.97,NNW,338,3.1,3.1,69,0.00,,,0.00,WUHU216HW,2013-06-10 15:32:00,
2013-06-10 08:37:00,58.3,48.2,29.98,ESE,113,1.8,4.5,69,0.00,,,0.00,WUHU216HW,2013-06-10 15:37:00,
2013-06-10 08:42:00,58.0,48.2,29.98,NNW,338,2.5,4.5,70,0.00,,,0.00,WUHU216HW,2013-06-10 15:42:00,
2013-06-10 08:47:00,57.8,47.7,29.98,East,90,0.7,2.9,69,0.00,,,0.00,WUHU216HW,2013-06-10 15:47:00,
2013-06-10 08:52:00,57.2,47.5,29.98,NNE,23,0.9,2.9,70,0.00,,,0.00,WUHU216HW,2013-06-10 15:52:00,
2013-06-10 08:57:00,56.9,47.2,29.98,ENE,68,0.2,2.9,70,0.00,,,0.00,WUHU216HW,2013-06-10 15:57:00,
2013-06-10 09:02:00,56.9,47.5,29.98,NE,45,2.2,2.9,71,0.00,,,0.00,WUHU216HW,2013-06-10 16:02:00,
2013-06-10 09:07:00,56.9,47.9,29.97,East,90,0.7,2.5,72,0.00,,,0.00,WUHU216HW,2013-06-10 16:07:00,
2013-06-10 09:12:00,56.5,47.3,29.98,ENE,68,1.8,2.2,71,0.00,,,0.00,WUHU216HW,2013-06-10 16:12:00,
2013-06-10 09:17:00,56.2,47.6,29.97,East,90,0.7,2.9,73,0.00,,,0.00,WUHU216HW,2013-06-10 16:17:00,
2013-06-10 09:22:00,56.3,47.8,29.97,East,90,0.7,2.9,73,0.00,,,0.00,WUHU216HW,2013-06-10 16:22:00,
2013-06-10 09:27:00,56.7,47.7,29.97,NNE,23,1.1,2.0,72,0.00,,,0.00,WUHU216HW,2013-06-10 16:27:00,
2013-06-10 09:32:00,56.7,47.4,29.97,NE,45,2.0,2.5,71,0.00,,,0.00,WUHU216HW,2013-06-10 16:32:00,
2013-06-10 09:37:00,56.5,47.6,29.97,North,0,0.4,2.5,72,0.00,,,0.00,WUHU216HW,2013-06-10 16:37:00,
2013-06-10 09:42:00,56.5,47.6,29.97,NE,45,1.1,2.0,72,0.00,,,0.00,WUHU216HW,2013-06-10 16:42:00,
2013-06-10 09:47:00,56.5,47.6,29.97,North,0,0.7,1.8,72,0.00,,,0.00,WUHU216HW,2013-06-10 16:47:00,
2013-06-10 09:52:00,56.7,47.7,29.97,North,0,1.1,2.2,72,0.00,,,0.00,WUHU216HW,2013-06-10 16:52:00,
2013-06-10 09:57:00,57.1,48.4,29.97,NE,45,1.8,2.2,73,0.00,,,0.00,WUHU216HW,2013-06-10 16:57:00,
2013-06-10 10:02:00,57.1,48.1,29.97,ENE,68,2.2,2.5,72,0.00,,,0.00,WUHU216HW,2013-06-10 17:02:00,
2013-06-10 10:07:00,57.1,48.1,29.97,NNE,23,2.2,2.7,72,0.00,,,0.00,WUHU216HW,2013-06-10 17:07:00,
2013-06-10 10:12:00,57.4,48.4,29.97,ENE,68,0.4,2.7,72,0.00,,,0.00,WUHU216HW,2013-06-10 17:12:00,
2013-06-10 10:17:00,58.3,48.6,29.97,NNE,23,4.0,4.0,70,0.00,,,0.00,WUHU216HW,2013-06-10 17:17:00,
2013-06-10 10:22:00,59.2,49.1,29.97,NNE,23,3.1,4.9,69,0.00,,,0.00,WUHU216HW,2013-06-10 17:22:00,
2013-06-10 10:27:00,59.8,49.2,29.97,NNE,23,2.9,5.1,68,0.00,,,0.00,WUHU216HW,2013-06-10 17:27:00,
2013-06-10 10:32:00,59.9,49.0,29.96,ESE,113,1.6,5.1,67,0.00,,,0.00,WUHU216HW,2013-06-10 17:32:00,
2013-06-10 10:37:00,59.8,48.0,29.96,NNE,23,3.1,4.0,65,0.00,,,0.00,WUHU216HW,2013-06-10 17:37:00,
2013-06-10 10:42:00,59.9,49.4,29.96,ESE,113,2.5,4.7,68,0.00,,,0.00,WUHU216HW,2013-06-10 17:42:00,
2013-06-10 10:47:00,60.5,49.5,29.96,North,0,3.8,4.7,67,0.00,,,0.00,WUHU216HW,2013-06-10 17:47:00,
2013-06-10 10:52:00,60.3,48.5,29.96,SE,135,0.4,4.7,65,0.00,,,0.00,WUHU216HW,2013-06-10 17:52:00,
2013-06-10 10:57:00,60.8,49.5,29.96,North,0,5.1,5.1,66,0.00,,,0.00,WUHU216HW,2013-06-10 17:57:00,
2013-06-10 11:02:00,61.9,50.1,29.96,ESE,113,1.1,5.4,65,0.00,,,0.00,WUHU216HW,2013-06-10 18:02:00,
2013-06-10 11:07:00,61.9,49.6,29.96,NE,45,4.5,5.4,64,0.00,,,0.00,WUHU216HW,2013-06-10 18:07:00,
2013-06-10 11:12:00,61.2,49.4,29.96,ESE,113,1.8,4.7,65,0.00,,,0.00,WUHU216HW,2013-06-10 18:12:00,
2013-06-10 11:17:00,61.9,50.1,29.96,ENE,68,3.4,6.0,65,0.00,,,0.00,WUHU216HW,2013-06-10 18:17:00,
2013-06-10 11:22:00,62.5,50.5,29.96,NE,45,2.0,6.3,65,0.00,,,0.00,WUHU216HW,2013-06-10 18:22:00,
2013-06-10 11:27:00,63.7,50.1,29.96,ESE,113,2.5,6.3,61,0.00,,,0.00,WUHU216HW,2013-06-10 18:27:00,
2013-06-10 11:32:00,63.4,49.7,29.96,ESE,113,1.8,4.7,61,0.00,,,0.00,WUHU216HW,2013-06-10 18:32:00,
2013-06-10 11:37:00,62.1,49.0,29.95,ESE,113,2.7,4.0,62,0.00,,,0.00,WUHU216HW,2013-06-10 18:37:00,
2013-06-10 11:42:00,62.6,50.7,29.95,North,0,2.7,5.4,65,0.00,,,0.00,WUHU216HW,2013-06-10 18:42:00,
2013-06-10 11:47:00,64.1,51.2,29.95,North,0,2.7,5.4,63,0.00,,,0.00,WUHU216HW,2013-06-10 18:47:00,
2013-06-10 11:52:00,65.0,50.3,29.95,East,90,3.1,4.9,59,0.00,,,0.00,WUHU216HW,2013-06-10 18:52:00,
2013-06-10 11:57:00,64.1,49.9,29.95,ENE,68,2.0,5.1,60,0.00,,,0.00,WUHU216HW,2013-06-10 18:57:00,
2013-06-10 12:02:00,63.7,50.1,29.95,North,0,2.2,5.1,61,0.00,,,0.00,WUHU216HW,2013-06-10 19:02:00,
2013-06-10 12:07:00,63.5,50.2,29.95,NNE,23,2.7,5.1,62,0.00,,,0.00,WUHU216HW,2013-06-10 19:07:00,
2013-06-10 12:12:00,64.4,50.2,29.94,NNE,23,2.9,4.5,60,0.00,,,0.00,WUHU216HW,2013-06-10 19:12:00,
2013-06-10 12:17:00,65.2,51.4,29.95,North,0,3.8,5.1,61,0.00,,,0.00,WUHU216HW,2013-06-10 19:17:00,
2013-06-10 12:22:00,66.1,51.8,29.94,NE,45,3.4,5.1,60,0.00,,,0.00,WUHU216HW,2013-06-10 19:22:00,
2013-06-10 12:27:00,66.8,52.0,29.94,NNW,338,3.4,4.7,59,0.00,,,0.00,WUHU216HW,2013-06-10 19:27:00,
2013-06-10 12:32:00,67.3,51.6,29.94,NNW,338,2.5,4.7,57,0.00,,,0.00,WUHU216HW,2013-06-10 19:32:00,
2013-06-10 12:37:00,66.2,50.0,29.94,North,0,1.8,4.7,56,0.00,,,0.00,WUHU216HW,2013-06-10 19:37:00,
2013-06-10 12:42:00,65.7,50.1,29.94,ENE,68,1.1,4.0,57,0.00,,,0.00,WUHU216HW,2013-06-10 19:42:00,
2013-06-10 12:47:00,65.9,51.2,29.94,North,0,1.1,4.0,59,0.00,,,0.00,WUHU216HW,2013-06-10 19:47:00,
2013-06-10 12:52:00,65.9,50.7,29.94,NNE,23,3.1,4.5,58,0.00,,,0.00,WUHU216HW,2013-06-10 19:52:00,
2013-06-10 12:57:00,66.2,50.6,29.94,ENE,68,4.3,5.4,57,0.00,,,0.00,WUHU216HW,2013-06-10 19:57:00,
2013-06-10 13:02:00,65.5,49.9,29.94,NNE,23,2.5,5.4,57,0.00,,,0.00,WUHU216HW,2013-06-10 20:02:00,
2013-06-10 13:07:00,65.7,49.5,29.94,East,90,0.9,5.4,56,0.00,,,0.00,WUHU216HW,2013-06-10 20:07:00,
2013-06-10 13:12:00,65.5,49.3,29.93,NNW,338,1.3,4.3,56,0.00,,,0.00,WUHU216HW,2013-06-10 20:12:00,
2013-06-10 13:17:00,65.2,49.0,29.94,WSW,248,0.4,4.0,56,0.00,,,0.00,WUHU216HW,2013-06-10 20:17:00,
2013-06-10 13:22:00,64.4,48.2,29.94,North,0,0.9,4.0,56,0.00,,,0.00,WUHU216HW,2013-06-10 20:22:00,
2013-06-10 13:27:00,63.5,47.4,29.94,NE,45,1.1,3.1,56,0.00,,,0.00,WUHU216HW,2013-06-10 20:27:00,
2013-06-10 13:32:00,63.4,48.8,29.94,NNE,23,1.3,3.1,59,0.00,,,0.00,WUHU216HW,2013-06-10 20:32:00,
2013-06-10 13:37:00,63.9,48.8,29.93,NE,45,1.8,3.6,58,0.00,,,0.00,WUHU216HW,2013-06-10 20:37:00,
2013-06-10 13:42:00,65.0,49.3,29.93,ENE,68,2.5,3.6,57,0.00,,,0.00,WUHU216HW,2013-06-10 20:42:00,
2013-06-10 13:47:00,65.9,50.7,29.93,North,0,1.8,4.5,58,0.00,,,0.00,WUHU216HW,2013-06-10 20:47:00,
2013-06-10 13:52:00,67.0,50.2,29.93,NNE,23,4.5,4.9,55,0.00,,,0.00,WUHU216HW,2013-06-10 20:52:00,
2013-06-10 13:57:00,67.5,49.2,29.93,North,0,4.0,5.1,52,0.00,,,0.00,WUHU216HW,2013-06-10 20:57:00,
2013-06-10 14:02:00,67.0,49.2,29.92,East,90,1.1,5.1,53,0.00,,,0.00,WUHU216HW,2013-06-10 21:02:00,
2013-06-10 14:07:00,65.9,48.2,29.92,NE,45,1.8,4.3,53,0.00,,,0.00,WUHU216HW,2013-06-10 21:07:00,
2013-06-10 14:12:00,65.2,48.5,29.92,North,0,1.1,2.9,55,0.00,,,0.00,WUHU216HW,2013-06-10 21:12:00,
2013-06-10 14:17:00,65.0,47.9,29.92,NNE,23,1.8,4.7,54,0.00,,,0.00,WUHU216HW,2013-06-10 21:17:00,
2013-06-10 14:22:00,65.3,48.3,29.92,North,0,2.2,4.7,54,0.00,,,0.00,WUHU216HW,2013-06-10 21:22:00,
2013-06-10 14:27:00,65.9,48.2,29.92,North,0,2.7,4.7,53,0.00,,,0.00,WUHU216HW,2013-06-10 21:27:00,
2013-06-10 14:32:00,66.8,49.2,29.92,NNE,23,4.7,4.7,53,0.00,,,0.00,WUHU216HW,2013-06-10 21:32:00,
2013-06-10 14:37:00,67.3,49.6,29.92,North,0,2.2,4.7,53,0.00,,,0.00,WUHU216HW,2013-06-10 21:37:00,
2013-06-10 14:42:00,66.8,48.6,29.92,ENE,68,4.7,4.7,52,0.00,,,0.00,WUHU216HW,2013-06-10 21:42:00,
2013-06-10 14:47:00,65.7,48.6,29.92,ENE,68,0.7,4.7,54,0.00,,,0.00,WUHU216HW,2013-06-10 21:47:00,
2013-06-10 14:52:00,65.0,48.8,29.92,ESE,113,0.7,4.7,56,0.00,,,0.00,WUHU216HW,2013-06-10 21:52:00,
2013-06-10 14:57:00,64.8,48.6,29.91,ENE,68,1.8,4.3,56,0.00,,,0.00,WUHU216HW,2013-06-10 21:57:00,
2013-06-10 15:02:00,65.0,49.3,29.91,SE,135,0.4,4.3,57,0.00,,,0.00,WUHU216HW,2013-06-10 22:02:00,
2013-06-10 15:07:00,65.0,48.8,29.91,ENE,68,0.9,2.2,56,0.00,,,0.00,WUHU216HW,2013-06-10 22:07:00,
2013-06-10 15:12:00,64.8,49.2,29.91,East,90,0.0,2.2,57,0.00,,,0.00,WUHU216HW,2013-06-10 22:12:00,
2013-06-10 15:17:00,64.8,49.2,29.91,East,90,1.8,1.8,57,0.00,,,0.00,WUHU216HW,2013-06-10 22:17:00,
2013-06-10 15:22:00,64.8,49.6,29.91,NE,45,1.6,3.1,58,0.00,,,0.00,WUHU216HW,2013-06-10 22:22:00,
2013-06-10 15:27:00,65.2,49.5,29.91,ENE,68,1.6,3.1,57,0.00,,,0.00,WUHU216HW,2013-06-10 22:27:00,
2013-06-10 15:32:00,65.7,50.5,29.91,SE,135,0.2,4.0,58,0.00,,,0.00,WUHU216HW,2013-06-10 22:32:00,
2013-06-10 15:37:00,66.2,49.6,29.91,North,0,4.0,4.0,55,0.00,,,0.00,WUHU216HW,2013-06-10 22:37:00,
2013-06-10 15:42:00,66.1,49.0,29.91,ENE,68,1.3,4.5,54,0.00,,,0.00,WUHU216HW,2013-06-10 22:42:00,
2013-06-10 15:47:00,65.7,49.5,29.91,SE,135,0.2,4.5,56,0.00,,,0.00,WUHU216HW,2013-06-10 22:47:00,
2013-06-10 15:52:00,65.9,49.7,29.91,NE,45,2.0,4.0,56,0.00,,,0.00,WUHU216HW,2013-06-10 22:52:00,
2013-06-10 15:57:00,66.1,50.4,29.90,North,0,0.2,4.0,57,0.00,,,0.00,WUHU216HW,2013-06-10 22:57:00,
2013-06-10 16:02:00,66.2,50.6,29.90,WNW,293,1.1,4.0,57,0.00,,,0.00,WUHU216HW,2013-06-10 23:02:00,
2013-06-10 16:07:00,66.2,50.0,29.90,SE,135,0.4,1.1,56,0.00,,,0.00,WUHU216HW,2013-06-10 23:07:00,
2013-06-10 16:12:00,66.2,50.6,29.90,ENE,68,1.1,1.6,57,0.00,,,0.00,WUHU216HW,2013-06-10 23:12:00,
2013-06-10 16:17:00,65.9,49.7,29.90,NE,45,2.2,3.1,56,0.00,,,0.00,WUHU216HW,2013-06-10 23:17:00,
2013-06-10 16:22:00,65.5,49.9,29.90,North,0,0.4,3.1,57,0.00,,,0.00,WUHU216HW,2013-06-10 23:22:00,
2013-06-10 16:27:00,66.1,50.4,29.90,SSE,158,0.4,1.8,57,0.00,,,0.00,WUHU216HW,2013-06-10 23:27:00,
2013-06-10 16:32:00,66.6,50.0,29.89,WSW,248,1.1,2.2,55,0.00,,,0.00,WUHU216HW,2013-06-10 23:32:00,
2013-06-10 16:37:00,66.8,50.6,29.89,SE,135,0.7,2.2,56,0.00,,,0.00,WUHU216HW,2013-06-10 23:37:00,
2013-06-10 16:42:00,66.4,49.2,29.89,SSE,158,1.6,2.0,54,0.00,,,0.00,WUHU216HW,2013-06-10 23:42:00,
2013-06-10 16:47:00,66.2,50.0,29.89,SW,225,1.8,2.0,56,0.00,,,0.00,WUHU216HW,2013-06-10 23:47:00,
2013-06-10 16:52:00,66.2,50.0,29.89,SE,135,0.9,2.0,56,0.00,,,0.00,WUHU216HW,2013-06-10 23:52:00,
2013-06-10 16:57:00,66.6,50.4,29.89,SE,135,0.4,1.8,56,0.00,,,0.00,WUHU216HW,2013-06-10 23:57:00,
2013-06-10 17:02:00,67.0,50.2,29.89,SE,135,0.7,0.9,55,0.00,,,0.00,WUHU216HW,2013-06-11 00:02:00,
2013-06-10 17:07:00,67.0,50.2,29.89,NNE,23,0.4,1.6,55,0.00,,,0.00,WUHU216HW,2013-06-11 00:07:00,
2013-06-10 17:12:00,67.3,50.6,29.88,ESE,113,0.4,1.6,55,0.00,,,0.00,WUHU216HW,2013-06-11 00:12:00,
2013-06-10 17:17:00,67.5,50.2,29.88,SE,135,1.1,4.7,54,0.00,,,0.00,WUHU216HW,2013-06-11 00:17:00,
2013-06-10 17:22:00,68.0,50.8,29.88,SSW,203,4.7,4.7,54,0.00,,,0.00,WUHU216HW,2013-06-11 00:22:00,
2013-06-10 17:27:00,68.6,50.8,29.88,SSW,203,3.6,4.7,53,0.00,,,0.00,WUHU216HW,2013-06-11 00:27:00,
2013-06-10 17:32:00,68.8,51.0,29.88,SSW,203,3.4,4.7,53,0.00,,,0.00,WUHU216HW,2013-06-11 00:32:00,
2013-06-10 17:37:00,69.1,50.8,29.88,WSW,248,6.0,6.0,52,0.00,,,0.00,WUHU216HW,2013-06-11 00:37:00,
2013-06-10 17:42:00,69.5,50.6,29.88,NW,315,2.2,6.0,51,0.00,,,0.00,WUHU216HW,2013-06-11 00:42:00,
2013-06-10 17:47:00,69.5,50.6,29.88,West,270,3.4,6.0,51,0.00,,,0.00,WUHU216HW,2013-06-11 00:47:00,
2013-06-10 17:52:00,69.5,50.0,29.88,NW,315,4.5,5.1,50,0.00,,,0.00,WUHU216HW,2013-06-11 00:52:00,
2013-06-10 17:57:00,69.5,50.6,29.88,WSW,248,5.6,5.6,51,0.00,,,0.00,WUHU216HW,2013-06-11 00:57:00,
2013-06-10 18:02:00,69.8,50.4,29.88,WSW,248,3.6,5.6,50,0.00,,,0.00,WUHU216HW,2013-06-11 01:02:00,
2013-06-10 18:07:00,69.8,50.4,29.88,WSW,248,1.6,6.0,50,0.00,,,0.00,WUHU216HW,2013-06-11 01:07:00,
2013-06-10 18:12:00,69.8,50.4,29.88,SW,225,6.0,6.3,50,0.00,,,0.00,WUHU216HW,2013-06-11 01:12:00,
2013-06-10 18:17:00,70.0,50.6,29.88,SW,225,4.0,6.3,50,0.00,,,0.00,WUHU216HW,2013-06-11 01:17:00,
2013-06-10 18:22:00,70.2,51.2,29.87,SW,225,1.3,7.4,51,0.00,,,0.00,WUHU216HW,2013-06-11 01:22:00,
2013-06-10 18:27:00,70.2,51.2,29.88,SSE,158,3.1,8.5,51,0.00,,,0.00,WUHU216HW,2013-06-11 01:27:00,
2013-06-10 18:32:00,70.0,50.6,29.87,West,270,4.5,8.5,50,0.00,,,0.00,WUHU216HW,2013-06-11 01:32:00,
2013-06-10 18:37:00,69.8,50.4,29.87,SW,225,1.3,6.3,50,0.00,,,0.00,WUHU216HW,2013-06-11 01:37:00,
2013-06-10 18:42:00,69.7,50.2,29.87,SSE,158,0.7,4.7,50,0.00,,,0.00,WUHU216HW,2013-06-11 01:42:00,
2013-06-10 18:47:00,69.5,50.0,29.87,SSE,158,0.4,3.8,50,0.00,,,0.00,WUHU216HW,2013-06-11 01:47:00,
2013-06-10 18:52:00,69.5,50.0,29.87,WNW,293,3.8,4.0,50,0.00,,,0.00,WUHU216HW,2013-06-11 01:52:00,
2013-06-10 18:57:00,69.5,49.5,29.87,SW,225,4.0,9.2,49,0.00,,,0.00,WUHU216HW,2013-06-11 01:57:00,
2013-06-10 19:02:00,69.1,49.1,29.87,SE,135,1.6,9.2,49,0.00,,,0.00,WUHU216HW,2013-06-11 02:02:00,
2013-06-10 19:07:00,68.6,49.2,29.87,ESE,113,1.8,8.1,50,0.00,,,0.00,WUHU216HW,2013-06-11 02:07:00,
2013-06-10 19:12:00,68.4,49.2,29.87,ESE,113,3.4,7.2,50,0.00,,,0.00,WUHU216HW,2013-06-11 02:12:00,
2013-06-10 19:17:00,68.0,48.8,29.87,SSW,203,6.0,8.9,50,0.00,,,0.00,WUHU216HW,2013-06-11 02:17:00,
2013-06-10 19:22:00,67.9,49.2,29.87,WSW,248,5.4,8.9,51,0.00,,,0.00,WUHU216HW,2013-06-11 02:22:00,
2013-06-10 19:27:00,67.7,49.0,29.88,WSW,248,2.9,9.8,51,0.00,,,0.00,WUHU216HW,2013-06-11 02:27:00,
2013-06-10 19:32:00,67.5,49.2,29.88,SW,225,4.7,9.8,52,0.00,,,0.00,WUHU216HW,2013-06-11 02:32:00,
2013-06-10 19:37:00,67.7,49.4,29.88,WSW,248,4.7,7.6,52,0.00,,,0.00,WUHU216HW,2013-06-11 02:37:00,
2013-06-10 19:42:00,67.3,49.2,29.88,SSE,158,2.7,7.6,52,0.00,,,0.00,WUHU216HW,2013-06-11 02:42:00,
2013-06-10 19:47:00,67.3,49.2,29.88,West,270,2.5,7.2,52,0.00,,,0.00,WUHU216HW,2013-06-11 02:47:00,
2013-06-10 19:52:00,67.3,49.2,29.88,West,270,7.2,9.8,52,0.00,,,0.00,WUHU216HW,2013-06-11 02:52:00,
2013-06-10 19:57:00,67.3,49.2,29.88,West,270,1.1,9.8,52,0.00,,,0.00,WUHU216HW,2013-06-11 02:57:00,
2013-06-10 20:02:00,67.3,49.2,29.88,SSE,158,2.5,9.8,52,0.00,,,0.00,WUHU216HW,2013-06-11 03:02:00,
2013-06-10 20:07:00,66.6,49.0,29.88,SW,225,0.4,9.8,53,0.00,,,0.00,WUHU216HW,2013-06-11 03:07:00,
2013-06-10 20:12:00,66.6,49.0,29.88,South,180,3.1,6.5,53,0.00,,,0.00,WUHU216HW,2013-06-11 03:12:00,
2013-06-10 20:17:00,65.2,47.5,29.88,SW,225,5.4,7.6,53,0.00,,,0.00,WUHU216HW,2013-06-11 03:17:00,
2013-06-10 20:22:00,64.1,47.0,29.88,SW,225,4.3,7.6,54,0.00,,,0.00,WUHU216HW,2013-06-11 03:22:00,
2013-06-10 20:27:00,63.2,47.2,29.88,SW,225,2.5,5.4,56,0.00,,,0.00,WUHU216HW,2013-06-11 03:27:00,
2013-06-10 20:32:00,62.6,47.2,29.88,SW,225,2.2,7.2,57,0.00,,,0.00,WUHU216HW,2013-06-11 03:32:00,
2013-06-10 20:37:00,62.1,46.6,29.88,WSW,248,4.3,8.5,57,0.00,,,0.00,WUHU216HW,2013-06-11 03:37:00,
2013-06-10 20:42:00,61.7,46.8,29.88,SW,225,4.0,8.5,58,0.00,,,0.00,WUHU216HW,2013-06-11 03:42:00,
2013-06-10 20:47:00,61.4,47.0,29.88,WSW,248,8.3,9.2,59,0.00,,,0.00,WUHU216HW,2013-06-11 03:47:00,
2013-06-10 20:52:00,61.0,46.6,29.88,WSW,248,2.9,10.1,59,0.00,,,0.00,WUHU216HW,2013-06-11 03:52:00,
2013-06-10 20:57:00,60.7,46.8,29.88,SW,225,5.1,10.1,60,0.00,,,0.00,WUHU216HW,2013-06-11 03:57:00,
2013-06-10 21:01:00,60.3,46.9,29.89,North,0,3.6,8.9,61,0.00,,,0.00,WUHU216HW,2013-06-11 04:01:00,
2013-06-10 21:06:00,59.9,46.5,29.89,SW,225,5.1,6.9,61,0.00,,,0.00,WUHU216HW,2013-06-11 04:06:00,
2013-06-10 21:11:00,59.8,46.4,29.89,WSW,248,5.4,6.9,61,0.00,,,0.00,WUHU216HW,2013-06-11 04:11:00,
2013-06-10 21:16:00,59.4,46.4,29.89,WSW,248,2.7,5.4,62,0.00,,,0.00,WUHU216HW,2013-06-11 04:16:00,
2013-06-10 21:21:00,59.2,46.2,29.89,WSW,248,4.3,6.9,62,0.00,,,0.00,WUHU216HW,2013-06-11 04:21:00,
2013-06-10 21:26:00,58.9,45.8,29.89,SW,225,4.0,9.6,62,0.00,,,0.00,WUHU216HW,2013-06-11 04:26:00,
2013-06-10 21:31:00,58.7,45.7,29.90,SW,225,1.1,9.6,62,0.00,,,0.00,WUHU216HW,2013-06-11 04:31:00,
2013-06-10 21:36:00,58.5,45.9,29.90,SW,225,2.0,6.9,63,0.00,,,0.00,WUHU216HW,2013-06-11 04:36:00,
2013-06-10 21:41:00,58.1,45.6,29.90,WSW,248,2.9,6.3,63,0.00,,,0.00,WUHU216HW,2013-06-11 04:41:00,
2013-06-10 21:55:00,57.8,45.6,29.91,SW,225,2.5,2.5,64,0.00,,,0.00,WUHU216HW,2013-06-11 04:55:00,
2013-06-10 22:00:00,57.4,45.7,29.91,WSW,248,4.0,4.0,65,0.00,,,0.00,WUHU216HW,2013-06-11 05:00:00,
2013-06-10 22:05:00,57.2,45.5,29.91,WSW,248,0.4,6.3,65,0.00,,,0.00,WUHU216HW,2013-06-11 05:05:00,
2013-06-10 22:10:00,57.1,45.8,29.91,SW,225,3.1,6.3,66,0.00,,,0.00,WUHU216HW,2013-06-11 05:10:00,
2013-06-10 22:15:00,56.9,45.6,29.91,WSW,248,1.1,5.4,66,0.00,,,0.00,WUHU216HW,2013-06-11 05:15:00,
2013-06-10 22:20:00,56.7,45.5,29.91,West,270,3.6,4.7,66,0.00,,,0.00,WUHU216HW,2013-06-11 05:20:00,
2013-06-10 22:25:00,56.5,45.6,29.91,SW,225,0.4,5.4,67,0.00,,,0.00,WUHU216HW,2013-06-11 05:25:00,
2013-06-10 22:30:00,56.5,45.6,29.92,WSW,248,3.4,5.4,67,0.00,,,0.00,WUHU216HW,2013-06-11 05:30:00,
2013-06-10 22:35:00,56.3,45.9,29.91,WSW,248,2.7,5.4,68,0.00,,,0.00,WUHU216HW,2013-06-11 05:35:00,
2013-06-10 22:40:00,56.2,45.7,29.92,West,270,1.1,4.9,68,0.00,,,0.00,WUHU216HW,2013-06-11 05:40:00,
2013-06-10 22:45:00,56.0,45.5,29.92,SW,225,6.3,6.3,68,0.00,,,0.00,WUHU216HW,2013-06-11 05:45:00,
2013-06-10 22:50:00,55.8,45.4,29.92,SSE,158,2.9,6.3,68,0.00,,,0.00,WUHU216HW,2013-06-11 05:50:00,
2013-06-10 22:55:00,55.8,45.8,29.92,SW,225,2.2,6.3,69,0.00,,,0.00,WUHU216HW,2013-06-11 05:55:00,
2013-06-10 23:00:00,55.6,45.6,29.92,WSW,248,1.1,2.9,69,0.00,,,0.00,WUHU216HW,2013-06-11 06:00:00,
2013-06-10 23:05:00,55.4,45.5,29.92,WSW,248,0.2,2.2,69,0.00,,,0.00,WUHU216HW,2013-06-11 06:05:00,
2013-06-10 23:10:00,55.4,45.5,29.92,SSW,203,1.3,2.5,69,0.00,,,0.00,WUHU216HW,2013-06-11 06:10:00,
2013-06-10 23:15:00,55.1,45.1,29.92,SE,135,1.1,4.9,69,0.00,,,0.00,WUHU216HW,2013-06-11 06:15:00,
2013-06-10 23:20:00,54.9,45.4,29.92,West,270,1.1,4.9,70,0.00,,,0.00,WUHU216HW,2013-06-11 06:20:00,
2013-06-10 23:25:00,54.7,45.2,29.92,SE,135,0.9,3.6,70,0.00,,,0.00,WUHU216HW,2013-06-11 06:25:00,
2013-06-10 23:30:00,54.4,45.2,29.92,WSW,248,0.4,4.0,71,0.00,,,0.00,WUHU216HW,2013-06-11 06:30:00,
2013-06-10 23:35:00,54.4,45.2,29.92,NNW,338,0.7,4.0,71,0.00,,,0.00,WUHU216HW,2013-06-11 06:35:00,
2013-06-10 23:40:00,54.2,45.0,29.93,SSW,203,0.2,2.2,71,0.00,,,0.00,WUHU216HW,2013-06-11 06:40:00,
2013-06-10 23:45:00,54.2,45.0,29.93,WSW,248,0.7,2.9,71,0.00,,,0.00,WUHU216HW,2013-06-11 06:45:00,
2013-06-10 23:50:00,54.0,44.8,29.93,ESE,113,1.1,2.9,71,0.00,,,0.00,WUHU216HW,2013-06-11 06:50:00,
2013-06-10 23:55:00,53.6,44.8,29.93,North,0,0.2,1.8,72,0.00,,,0.00,WUHU216HW,2013-06-11 06:55:00,